createdAt,value
2023-01-30T00:00:51.233Z,15.83
2023-01-30T00:02:52.973Z,17.27
2023-01-30T00:04:55.085Z,16.73
2023-01-30T00:06:56.949Z,15.83
2023-01-30T00:08:58.807Z,16.97
2023-01-30T00:11:08.840Z,16.07
2023-01-30T00:13:10.957Z,15.10
2023-01-30T00:15:12.747Z,15.87
2023-01-30T00:17:14.511Z,16.30
2023-01-30T00:19:16.160Z,15.50
2023-01-30T00:21:18.202Z,15.73
2023-01-30T00:23:19.964Z,16.43
2023-01-30T00:25:21.956Z,15.70
2023-01-30T00:27:23.844Z,16.03
2023-01-30T00:29:25.596Z,15.27
2023-01-30T00:31:27.350Z,15.20
2023-01-30T00:33:29.731Z,14.90
2023-01-30T00:35:31.495Z,16.03
2023-01-30T00:37:33.283Z,16.90
2023-01-30T00:39:35.026Z,14.93
2023-01-30T00:41:55.575Z,16.97
2023-01-30T00:44:15.788Z,16.30
2023-01-30T00:46:51.017Z,14.20
2023-01-30T00:48:52.883Z,16.20
2023-01-30T00:50:54.943Z,15.13
2023-01-30T00:52:56.913Z,13.00
2023-01-30T00:54:58.591Z,14.80
2023-01-30T00:57:00.769Z,14.47
2023-01-30T00:59:02.695Z,15.00
2023-01-30T01:01:04.985Z,14.50
2023-01-30T01:03:06.831Z,15.43
2023-01-30T01:05:09.060Z,14.80
2023-01-30T01:07:12.419Z,15.50
2023-01-30T01:09:14.180Z,14.40
2023-01-30T01:11:24.302Z,14.70
2023-01-30T01:13:26.427Z,15.00
2023-01-30T01:15:28.200Z,13.90
2023-01-30T01:17:30.029Z,13.30
2023-01-30T01:19:31.923Z,14.83
2023-01-30T01:21:33.918Z,14.93
2023-01-30T01:23:35.727Z,13.77
2023-01-30T01:25:37.437Z,14.50
2023-01-30T01:27:39.180Z,14.77
2023-01-30T01:29:41.027Z,15.17
2023-01-30T01:31:44.724Z,13.43
2023-01-30T01:33:46.794Z,13.17
2023-01-30T01:35:48.616Z,13.70
2023-01-30T01:37:54.910Z,13.67
2023-01-30T01:40:15.229Z,14.13
2023-01-30T01:42:18.684Z,14.00
2023-01-30T01:44:20.480Z,13.47
2023-01-30T01:46:25.341Z,13.90
2023-01-30T01:48:49.167Z,13.80
2023-01-30T01:51:01.238Z,13.73
2023-01-30T01:53:03.121Z,14.37
2023-01-30T01:55:07.484Z,13.10
2023-01-30T01:57:16.145Z,14.10
2023-01-30T01:59:23.931Z,12.57
2023-01-30T02:01:26.079Z,13.30
2023-01-30T02:03:35.200Z,12.87
2023-01-30T02:05:45.982Z,13.63
2023-01-30T02:08:07.331Z,14.37
2023-01-30T02:10:15.500Z,13.90
2023-01-30T02:12:17.478Z,13.90
2023-01-30T02:14:21.278Z,12.43
2023-01-30T02:16:23.093Z,14.13
2023-01-30T02:18:25.686Z,14.40
2023-01-30T02:20:49.213Z,13.07
2023-01-30T02:23:22.577Z,15.73
2023-01-30T02:25:51.742Z,16.47
2023-01-30T02:28:36.147Z,17.70
2023-01-30T02:31:11.223Z,13.47
2023-01-30T02:33:15.731Z,16.20
2023-01-30T02:35:31.945Z,17.40
2023-01-30T02:38:00.667Z,16.60
2023-01-30T02:40:32.586Z,15.97
2023-01-30T02:43:22.076Z,16.60
2023-01-30T02:45:31.667Z,16.33
2023-01-30T02:47:52.711Z,16.63
2023-01-30T02:50:02.349Z,16.90
2023-01-30T02:52:06.854Z,16.83
2023-01-30T02:54:11.880Z,16.97
2023-01-30T02:56:13.793Z,17.23
2023-01-30T02:58:19.523Z,17.77
2023-01-30T03:00:32.941Z,16.60
2023-01-30T03:03:09.974Z,15.90
2023-01-30T03:05:23.567Z,17.80
2023-01-30T03:07:45.817Z,17.60
2023-01-30T03:10:07.468Z,18.63
2023-01-30T03:12:23.438Z,17.57
2023-01-30T03:14:29.660Z,18.83
2023-01-30T03:16:38.547Z,18.70
2023-01-30T03:18:44.863Z,18.90
2023-01-30T03:20:47.313Z,17.50
2023-01-30T03:22:49.170Z,18.30
2023-01-30T03:24:53.457Z,18.40
2023-01-30T03:27:00.743Z,17.90
2023-01-30T03:29:02.779Z,17.47
2023-01-30T03:31:04.893Z,18.90
2023-01-30T03:33:06.680Z,18.20
2023-01-30T03:35:09.408Z,16.10
2023-01-30T03:37:11.157Z,16.57
2023-01-30T03:39:12.897Z,17.93
2023-01-30T03:41:14.783Z,17.70
2023-01-30T03:43:16.641Z,17.17
2023-01-30T03:45:18.922Z,16.97
2023-01-30T03:47:20.801Z,16.57
2023-01-30T03:49:22.517Z,14.40
2023-01-30T03:51:24.344Z,14.53
2023-01-30T03:53:26.299Z,15.53
2023-01-30T03:55:28.059Z,14.27
2023-01-30T03:57:29.932Z,15.00
2023-01-30T03:59:31.621Z,12.70
2023-01-30T04:01:33.420Z,12.57
2023-01-30T04:03:35.128Z,11.67
2023-01-30T04:05:36.883Z,13.10
2023-01-30T04:07:38.553Z,12.37
2023-01-30T04:09:40.375Z,11.87
2023-01-30T04:11:42.190Z,10.90
2023-01-30T04:13:43.845Z,12.00
2023-01-30T04:15:45.696Z,10.80
2023-01-30T04:17:47.978Z,10.93
2023-01-30T04:19:49.634Z,11.60
2023-01-30T04:21:51.358Z,10.33
2023-01-30T04:23:53.053Z,10.80
2023-01-30T04:25:54.806Z,11.20
2023-01-30T04:27:56.644Z,10.20
2023-01-30T04:29:58.560Z,11.40
2023-01-30T04:32:00.344Z,9.70
2023-01-30T04:34:02.358Z,10.37
2023-01-30T04:36:04.963Z,10.57
2023-01-30T04:38:06.826Z,10.40
2023-01-30T04:40:09.502Z,9.53
2023-01-30T04:42:11.337Z,10.23
2023-01-30T04:44:13.026Z,10.80
2023-01-30T04:46:14.815Z,8.87
2023-01-30T04:48:17.534Z,9.83
2023-01-30T04:50:19.354Z,8.80
2023-01-30T04:52:21.077Z,10.00
2023-01-30T04:54:22.797Z,10.20
2023-01-30T04:56:24.558Z,8.67
2023-01-30T04:58:26.342Z,9.73
2023-01-30T05:00:28.738Z,9.30
2023-01-30T05:02:31.589Z,9.17
2023-01-30T05:04:33.588Z,8.83
2023-01-30T05:06:36.727Z,8.93
2023-01-30T05:08:38.469Z,8.50
2023-01-30T05:10:40.264Z,8.80
2023-01-30T05:12:41.928Z,9.23
2023-01-30T05:14:43.730Z,8.80
2023-01-30T05:16:45.481Z,9.10
2023-01-30T05:18:47.552Z,9.27
2023-01-30T05:20:50.492Z,9.70
2023-01-30T05:22:52.177Z,8.00
2023-01-30T05:24:53.965Z,9.27
2023-01-30T05:26:55.933Z,8.10
2023-01-30T05:28:58.477Z,8.37
2023-01-30T05:31:12.843Z,7.80
2023-01-30T05:33:14.758Z,7.77
2023-01-30T05:35:16.904Z,7.80
2023-01-30T05:37:18.797Z,8.57
2023-01-30T05:39:20.540Z,8.47
2023-01-30T05:41:22.179Z,7.70
2023-01-30T05:43:23.846Z,7.33
2023-01-30T05:45:25.565Z,9.30
2023-01-30T05:47:27.533Z,8.13
2023-01-30T05:49:29.311Z,7.60
2023-01-30T05:51:31.059Z,7.50
2023-01-30T05:53:37.279Z,8.50
2023-01-30T05:55:39.062Z,7.57
2023-01-30T05:57:40.990Z,7.80
2023-01-30T05:59:42.861Z,8.23
2023-01-30T06:01:44.906Z,7.10
2023-01-30T06:03:47.133Z,7.00
2023-01-30T06:05:49.190Z,7.73
2023-01-30T06:07:51.010Z,7.87
2023-01-30T06:09:53.000Z,7.70
2023-01-30T06:11:55.823Z,7.30
2023-01-30T06:13:57.842Z,7.80
2023-01-30T06:15:59.762Z,8.37
2023-01-30T06:18:01.451Z,5.90
2023-01-30T06:20:04.144Z,8.10
2023-01-30T06:22:05.939Z,6.97
2023-01-30T06:24:07.762Z,8.47
2023-01-30T06:26:09.866Z,7.30
2023-01-30T06:28:12.409Z,8.20
2023-01-30T06:30:14.623Z,7.47
2023-01-30T06:32:16.349Z,6.50
2023-01-30T06:34:18.161Z,7.13
2023-01-30T06:36:19.880Z,8.37
2023-01-30T06:38:21.540Z,7.57
2023-01-30T06:40:23.395Z,7.53
2023-01-30T06:42:25.128Z,6.97
2023-01-30T06:44:27.031Z,8.10
2023-01-30T06:46:28.818Z,7.57
2023-01-30T06:48:30.796Z,8.07
2023-01-30T06:50:32.898Z,6.33
2023-01-30T06:52:34.859Z,6.57
2023-01-30T06:54:36.489Z,7.00
2023-01-30T06:56:38.263Z,6.60
2023-01-30T06:58:39.995Z,7.33
2023-01-30T07:00:43.057Z,7.57
2023-01-30T07:02:45.690Z,7.43
2023-01-30T07:04:47.426Z,6.60
2023-01-30T07:06:50.043Z,5.97
2023-01-30T07:08:51.803Z,7.30
2023-01-30T07:10:53.448Z,6.53
2023-01-30T07:12:55.310Z,7.87
2023-01-30T07:14:57.312Z,7.17
2023-01-30T07:16:59.212Z,7.50
2023-01-30T07:19:00.966Z,7.13
2023-01-30T07:21:02.896Z,7.33
2023-01-30T07:23:04.847Z,7.70
2023-01-30T07:25:07.063Z,7.43
2023-01-30T07:27:13.434Z,7.63
2023-01-30T07:29:15.121Z,8.30
2023-01-30T07:31:17.118Z,6.50
2023-01-30T07:33:19.437Z,7.40
2023-01-30T07:35:22.992Z,7.67
2023-01-30T07:37:25.022Z,8.00
2023-01-30T07:39:26.708Z,8.00
2023-01-30T07:41:28.530Z,7.40
2023-01-30T07:43:30.545Z,6.40
2023-01-30T07:45:38.168Z,7.70
2023-01-30T07:47:39.940Z,8.27
2023-01-30T07:49:41.684Z,8.07
2023-01-30T07:51:43.351Z,7.60
2023-01-30T07:53:45.103Z,7.20
2023-01-30T07:55:46.861Z,7.70
2023-01-30T07:57:48.545Z,7.80
2023-01-30T07:59:50.336Z,7.87
2023-01-30T08:01:52.049Z,7.40
2023-01-30T08:03:53.737Z,8.00
2023-01-30T08:05:55.659Z,6.87
2023-01-30T08:07:57.624Z,7.90
2023-01-30T08:09:59.350Z,6.73
2023-01-30T08:12:01.262Z,7.17
2023-01-30T08:14:03.637Z,7.83
2023-01-30T08:16:07.057Z,6.60
2023-01-30T08:18:08.790Z,7.70
2023-01-30T08:20:11.403Z,7.20
2023-01-30T08:22:13.644Z,6.77
2023-01-30T08:24:15.718Z,7.27
2023-01-30T08:26:17.469Z,7.63
2023-01-30T08:28:19.130Z,6.70
2023-01-30T08:30:22.428Z,6.97
2023-01-30T08:32:24.444Z,7.33
2023-01-30T08:34:26.984Z,8.03
2023-01-30T08:36:28.725Z,8.27
2023-01-30T08:38:30.475Z,8.17
2023-01-30T08:40:32.167Z,8.07
2023-01-30T08:42:33.841Z,6.13
2023-01-30T08:44:35.624Z,7.90
2023-01-30T08:46:40.738Z,7.80
2023-01-30T08:48:49.866Z,7.27
2023-01-30T08:50:53.620Z,7.37
2023-01-30T08:52:55.569Z,7.53
2023-01-30T08:54:58.789Z,7.37
2023-01-30T08:57:00.509Z,7.30
2023-01-30T08:59:02.512Z,6.90
2023-01-30T09:01:07.714Z,6.23
2023-01-30T09:03:09.454Z,6.10
2023-01-30T09:05:11.243Z,6.90
2023-01-30T09:07:13.131Z,6.60
2023-01-30T09:09:14.786Z,6.50
2023-01-30T09:11:16.521Z,5.43
2023-01-30T09:13:18.290Z,5.90
2023-01-30T09:15:20.070Z,6.70
2023-01-30T09:17:22.277Z,7.80
2023-01-30T09:19:26.034Z,7.97
2023-01-30T09:21:28.604Z,7.50
2023-01-30T09:23:30.629Z,22.67
2023-01-30T09:25:32.496Z,11.83
2023-01-30T09:27:34.252Z,22.17
2023-01-30T09:29:36.269Z,14.67
2023-01-30T09:31:38.838Z,5.40
2023-01-30T09:33:40.603Z,6.07
2023-01-30T09:35:42.859Z,5.70
2023-01-30T09:37:52.076Z,5.93
2023-01-30T09:39:53.749Z,5.60
2023-01-30T09:42:22.006Z,5.60
2023-01-30T09:44:45.156Z,5.07
2023-01-30T09:47:32.766Z,4.63
2023-01-30T09:49:34.458Z,5.40
2023-01-30T09:51:48.217Z,5.03
2023-01-30T09:53:55.910Z,6.00
2023-01-30T09:55:59.523Z,5.53
2023-01-30T09:58:01.574Z,5.40
2023-01-30T10:00:13.957Z,5.67
2023-01-30T10:03:04.997Z,4.80
2023-01-30T10:05:07.211Z,4.80
2023-01-30T10:07:09.142Z,4.87
2023-01-30T10:09:39.083Z,5.43
2023-01-30T10:11:40.903Z,5.73
2023-01-30T10:14:03.648Z,5.67
2023-01-30T10:16:14.108Z,4.70
2023-01-30T10:18:31.211Z,5.10
2023-01-30T10:21:07.284Z,5.63
2023-01-30T10:23:41.315Z,5.40
2023-01-30T10:25:47.306Z,5.33
2023-01-30T10:28:01.605Z,5.27
2023-01-30T10:30:06.619Z,5.07
2023-01-30T10:32:11.386Z,5.10
2023-01-30T10:34:31.772Z,5.37
2023-01-30T10:36:36.454Z,4.60
2023-01-30T10:38:50.000Z,6.87
2023-01-30T10:41:10.730Z,5.50
2023-01-30T10:43:28.140Z,4.47
2023-01-30T10:45:58.530Z,3.10
2023-01-30T10:48:43.283Z,3.80
2023-01-30T10:50:55.255Z,3.70
2023-01-30T10:53:14.629Z,3.87
2023-01-30T10:55:38.478Z,3.33
2023-01-30T10:57:46.040Z,3.23
2023-01-30T11:00:07.894Z,3.00
2023-01-30T11:02:25.574Z,2.73
2023-01-30T11:04:47.322Z,3.40
2023-01-30T11:06:49.415Z,3.70
2023-01-30T11:08:52.675Z,3.13
2023-01-30T11:10:56.266Z,2.60
2023-01-30T11:13:07.285Z,2.50
2023-01-30T11:15:09.622Z,3.50
2023-01-30T11:17:18.382Z,2.43
2023-01-30T11:19:25.594Z,2.70
2023-01-30T11:21:42.392Z,2.40
2023-01-30T11:23:45.899Z,2.80
2023-01-30T11:26:09.419Z,2.07
2023-01-30T11:28:14.973Z,2.20
2023-01-30T11:30:19.802Z,2.40
2023-01-30T11:32:27.702Z,2.20
2023-01-30T11:34:29.744Z,2.83
2023-01-30T11:36:33.702Z,2.93
2023-01-30T11:38:38.817Z,1.90
2023-01-30T11:40:41.576Z,2.70
2023-01-30T11:42:48.950Z,2.57
2023-01-30T11:45:15.634Z,1.97
2023-01-30T11:47:27.230Z,1.80
2023-01-30T11:49:47.808Z,1.77
2023-01-30T11:52:00.592Z,2.50
2023-01-30T11:54:06.949Z,2.63
2023-01-30T11:56:21.398Z,2.47
2023-01-30T11:58:23.342Z,2.63
2023-01-30T12:00:39.939Z,2.07
2023-01-30T12:02:44.535Z,2.57
2023-01-30T12:04:48.211Z,2.40
2023-01-30T12:07:06.056Z,2.33
2023-01-30T12:09:27.861Z,3.13
2023-01-30T12:11:49.863Z,3.10
2023-01-30T12:13:54.109Z,3.57
2023-01-30T12:16:14.356Z,3.03
2023-01-30T12:18:35.779Z,3.40
2023-01-30T12:20:46.409Z,3.80
2023-01-30T12:23:06.349Z,4.50
2023-01-30T12:25:19.030Z,4.00
2023-01-30T12:27:48.996Z,4.43
2023-01-30T12:30:23.439Z,3.63
2023-01-30T12:32:29.092Z,4.07
2023-01-30T12:34:30.883Z,3.63
2023-01-30T12:36:53.844Z,4.13
2023-01-30T12:39:16.782Z,8.17
2023-01-30T12:41:24.346Z,7.57
2023-01-30T12:43:51.133Z,11.30
2023-01-30T12:46:11.743Z,12.93
2023-01-30T12:48:13.418Z,5.90
2023-01-30T12:50:52.796Z,6.10
2023-01-30T12:53:05.096Z,4.63
2023-01-30T12:55:39.639Z,5.10
2023-01-30T12:58:02.628Z,4.97
2023-01-30T13:00:25.435Z,6.57
2023-01-30T13:02:30.059Z,8.93
2023-01-30T13:05:06.512Z,18.83
2023-01-30T13:07:26.709Z,14.20
2023-01-30T13:09:46.226Z,11.73
2023-01-30T13:12:09.319Z,15.67
2023-01-30T13:14:22.728Z,19.10
2023-01-30T13:16:33.769Z,25.33
2023-01-30T13:18:56.129Z,27.43
2023-01-30T13:21:18.027Z,16.23
2023-01-30T13:23:53.340Z,17.87
2023-01-30T13:26:03.059Z,26.63
2023-01-30T13:28:14.176Z,26.30
2023-01-30T13:30:18.104Z,9.83
2023-01-30T13:32:42.753Z,18.53
2023-01-30T13:34:47.994Z,6.27
2023-01-30T13:36:52.207Z,6.70
2023-01-30T13:38:59.997Z,6.30
2023-01-30T13:41:04.175Z,6.37
2023-01-30T13:43:31.815Z,11.03
2023-01-30T13:45:36.725Z,5.83
2023-01-30T13:47:41.310Z,6.73
2023-01-30T13:50:15.745Z,5.50
2023-01-30T13:52:59.973Z,5.40
2023-01-30T13:55:43.858Z,5.70
2023-01-30T13:58:01.614Z,4.90
2023-01-30T14:00:29.825Z,5.97
2023-01-30T14:02:31.576Z,5.63
2023-01-30T14:04:36.844Z,3.57
2023-01-30T14:06:39.479Z,5.40
2023-01-30T14:08:47.395Z,5.50
2023-01-30T14:10:49.868Z,4.47
2023-01-30T14:12:53.983Z,5.70
2023-01-30T14:15:14.543Z,3.40
2023-01-30T14:17:17.313Z,3.67
2023-01-30T14:19:36.731Z,4.30
2023-01-30T14:21:40.160Z,3.90
2023-01-30T14:23:54.553Z,4.40
2023-01-30T14:25:56.707Z,3.60
2023-01-30T14:27:58.441Z,3.23
2023-01-30T14:30:00.692Z,2.80
2023-01-30T14:32:02.572Z,4.20
2023-01-30T14:34:48.089Z,3.73
2023-01-30T14:36:52.447Z,3.50
2023-01-30T14:39:52.688Z,2.77
2023-01-30T14:42:32.337Z,4.10
2023-01-30T14:45:00.645Z,3.40
2023-01-30T14:47:02.345Z,2.87
2023-01-30T14:49:27.779Z,3.27
2023-01-30T14:51:47.861Z,2.90
2023-01-30T14:54:10.838Z,3.00
2023-01-30T14:56:12.534Z,3.67
2023-01-30T14:58:18.481Z,3.30
2023-01-30T15:00:26.201Z,3.20
2023-01-30T15:02:32.143Z,3.30
2023-01-30T15:04:48.338Z,3.13
2023-01-30T15:06:50.398Z,3.30
2023-01-30T15:08:52.780Z,2.63
2023-01-30T15:11:04.438Z,2.40
2023-01-30T15:13:24.796Z,3.50
2023-01-30T15:15:46.750Z,2.43
2023-01-30T15:18:07.215Z,3.60
2023-01-30T15:20:17.059Z,3.50
2023-01-30T15:22:28.773Z,3.37
2023-01-30T15:24:56.983Z,2.80
2023-01-30T15:27:05.559Z,1.77
2023-01-30T15:29:41.082Z,3.50
2023-01-30T15:31:55.448Z,4.30
2023-01-30T15:33:57.529Z,4.27
2023-01-30T15:36:00.460Z,4.10
2023-01-30T15:38:02.208Z,2.90
2023-01-30T15:40:18.089Z,3.77
2023-01-30T15:42:20.169Z,3.77
2023-01-30T15:44:37.492Z,4.03
2023-01-30T15:46:51.596Z,3.67
2023-01-30T15:49:23.943Z,3.10
2023-01-30T15:51:30.941Z,3.83
2023-01-30T15:53:41.963Z,3.40
2023-01-30T15:55:44.748Z,3.67
2023-01-30T15:57:52.869Z,3.40
2023-01-30T15:59:55.848Z,4.73
2023-01-30T16:02:29.882Z,4.90
2023-01-30T16:04:32.256Z,4.60
2023-01-30T16:06:36.924Z,3.43
2023-01-30T16:08:38.758Z,4.47
2023-01-30T16:10:46.581Z,4.43
2023-01-30T16:12:50.580Z,5.20
2023-01-30T16:15:05.676Z,3.50
2023-01-30T16:17:14.448Z,4.60
2023-01-30T16:19:26.449Z,5.23
2023-01-30T16:21:37.013Z,4.87
2023-01-30T16:24:04.040Z,5.07
2023-01-30T16:26:09.601Z,4.50
2023-01-30T16:28:11.326Z,5.77
2023-01-30T16:30:13.349Z,5.90
2023-01-30T16:32:15.562Z,4.80
2023-01-30T16:34:33.265Z,3.70
2023-01-30T16:36:41.902Z,4.80
2023-01-30T16:38:45.570Z,4.60
2023-01-30T16:40:47.243Z,3.33
2023-01-30T16:43:00.986Z,3.50
2023-01-30T16:45:15.995Z,4.60
2023-01-30T16:47:29.159Z,3.57
2023-01-30T16:49:36.947Z,4.97
2023-01-30T16:51:38.755Z,4.20
2023-01-30T16:53:51.399Z,5.00
2023-01-30T16:55:58.848Z,4.77
2023-01-30T16:58:03.563Z,3.50
2023-01-30T17:00:10.385Z,4.80
2023-01-30T17:02:35.452Z,3.80
2023-01-30T17:04:41.321Z,3.70
2023-01-30T17:06:43.365Z,3.80
2023-01-30T17:08:52.305Z,3.90
2023-01-30T17:10:55.244Z,4.13
2023-01-30T17:12:57.853Z,4.53
2023-01-30T17:15:14.577Z,3.70
2023-01-30T17:17:16.866Z,4.13
2023-01-30T17:19:18.553Z,4.17
2023-01-30T17:21:22.431Z,3.60
2023-01-30T17:23:24.131Z,4.57
2023-01-30T17:25:44.896Z,3.10
2023-01-30T17:27:46.841Z,4.60
2023-01-30T17:29:49.276Z,2.60
2023-01-30T17:31:52.313Z,4.03
2023-01-30T17:33:54.233Z,3.10
2023-01-30T17:36:05.379Z,4.03
